sensor_id;sensor_type;location;lat;lon;timestamp;temperature;humidity
30047;DHT22;16878;52.542;13.426;2023-02-11T00:00:40;3.80;99.90
30047;DHT22;16878;52.542;13.426;2023-02-11T00:03:06;3.80;99.90
30047;DHT22;16878;52.542;13.426;2023-02-11T00:05:32;3.80;99.90
30047;DHT22;16878;52.542;13.426;2023-02-11T00:07:57;3.80;99.90
30047;DHT22;16878;52.542;13.426;2023-02-11T00:10:23;3.80;99.90
30047;DHT22;16878;52.542;13.426;2023-02-11T00:12:49;3.90;99.90
30047;DHT22;16878;52.542;13.426;2023-02-11T00:15:14;3.90;99.90
30047;DHT22;16878;52.542;13.426;2023-02-11T00:17:40;3.90;99.90
30047;DHT22;16878;52.542;13.426;2023-02-11T00:20:06;4.00;99.90
30047;DHT22;16878;52.542;13.426;2023-02-11T00:22:32;4.00;99.90
30047;DHT22;16878;52.542;13.426;2023-02-11T00:24:57;4.00;99.90
30047;DHT22;16878;52.542;13.426;2023-02-11T00:27:24;4.00;99.90
30047;DHT22;16878;52.542;13.426;2023-02-11T00:29:50;4.10;99.90
30047;DHT22;16878;52.542;13.426;2023-02-11T00:32:15;4.10;99.90
30047;DHT22;16878;52.542;13.426;2023-02-11T00:34:41;4.00;99.90
30047;DHT22;16878;52.542;13.426;2023-02-11T00:37:07;4.10;99.90
30047;DHT22;16878;52.542;13.426;2023-02-11T00:39:32;4.10;99.90
30047;DHT22;16878;52.542;13.426;2023-02-11T00:41:58;4.20;99.90
30047;DHT22;16878;52.542;13.426;2023-02-11T00:44:25;4.20;99.90
30047;DHT22;16878;52.542;13.426;2023-02-11T00:46:50;4.20;99.90
30047;DHT22;16878;52.542;13.426;2023-02-11T00:49:16;4.20;99.90
30047;DHT22;16878;52.542;13.426;2023-02-11T00:51:42;4.30;99.90
30047;DHT22;16878;52.542;13.426;2023-02-11T00:54:07;4.30;99.90
30047;DHT22;16878;52.542;13.426;2023-02-11T00:56:33;4.30;99.90
30047;DHT22;16878;52.542;13.426;2023-02-11T00:58:59;4.40;99.90
30047;DHT22;16878;52.542;13.426;2023-02-11T01:01:25;4.40;99.90
30047;DHT22;16878;52.542;13.426;2023-02-11T01:03:51;4.40;99.90
30047;DHT22;16878;52.542;13.426;2023-02-11T01:06:22;4.40;99.90
30047;DHT22;16878;52.542;13.426;2023-02-11T01:08:48;4.40;99.90
30047;DHT22;16878;52.542;13.426;2023-02-11T01:11:19;4.40;99.90
30047;DHT22;16878;52.542;13.426;2023-02-11T01:13:46;4.50;99.90
30047;DHT22;16878;52.542;13.426;2023-02-11T01:16:12;4.50;99.90
30047;DHT22;16878;52.542;13.426;2023-02-11T01:18:39;4.50;99.90
30047;DHT22;16878;52.542;13.426;2023-02-11T01:21:06;4.50;99.90
30047;DHT22;16878;52.542;13.426;2023-02-11T01:23:32;4.50;99.90
30047;DHT22;16878;52.542;13.426;2023-02-11T01:25:57;4.50;99.90
30047;DHT22;16878;52.542;13.426;2023-02-11T01:28:25;4.50;99.90
30047;DHT22;16878;52.542;13.426;2023-02-11T01:30:52;4.50;99.90
30047;DHT22;16878;52.542;13.426;2023-02-11T01:33:18;4.50;99.90
30047;DHT22;16878;52.542;13.426;2023-02-11T01:35:44;4.50;99.90
30047;DHT22;16878;52.542;13.426;2023-02-11T01:38:21;4.50;99.90
30047;DHT22;16878;52.542;13.426;2023-02-11T01:40:55;4.50;99.90
30047;DHT22;16878;52.542;13.426;2023-02-11T01:43:23;4.50;99.90
30047;DHT22;16878;52.542;13.426;2023-02-11T01:45:56;4.50;99.90
30047;DHT22;16878;52.542;13.426;2023-02-11T01:48:37;4.50;99.90
30047;DHT22;16878;52.542;13.426;2023-02-11T01:51:20;4.50;99.90
30047;DHT22;16878;52.542;13.426;2023-02-11T01:53:47;4.50;99.90
30047;DHT22;16878;52.542;13.426;2023-02-11T01:56:35;4.50;99.90
30047;DHT22;16878;52.542;13.426;2023-02-11T01:59:26;4.60;99.90
30047;DHT22;16878;52.542;13.426;2023-02-11T02:01:57;4.60;99.90
30047;DHT22;16878;52.542;13.426;2023-02-11T02:04:27;4.50;99.90
30047;DHT22;16878;52.542;13.426;2023-02-11T02:07:02;4.60;99.90
30047;DHT22;16878;52.542;13.426;2023-02-11T02:09:38;4.60;99.90
30047;DHT22;16878;52.542;13.426;2023-02-11T02:12:05;4.60;99.90
30047;DHT22;16878;52.542;13.426;2023-02-11T02:14:31;4.60;99.90
30047;DHT22;16878;52.542;13.426;2023-02-11T02:16:56;4.60;99.90
30047;DHT22;16878;52.542;13.426;2023-02-11T02:30:42;4.70;99.90
30047;DHT22;16878;52.542;13.426;2023-02-11T02:41:13;4.70;99.90
30047;DHT22;16878;52.542;13.426;2023-02-11T02:43:43;4.80;99.90
30047;DHT22;16878;52.542;13.426;2023-02-11T02:46:17;4.80;99.90
30047;DHT22;16878;52.542;13.426;2023-02-11T02:48:44;4.80;99.90
30047;DHT22;16878;52.542;13.426;2023-02-11T02:51:47;4.80;99.90
30047;DHT22;16878;52.542;13.426;2023-02-11T03:02:46;4.80;99.90
30047;DHT22;16878;52.542;13.426;2023-02-11T03:08:06;4.80;99.90
30047;DHT22;16878;52.542;13.426;2023-02-11T03:10:37;4.90;99.90
30047;DHT22;16878;52.542;13.426;2023-02-11T03:13:04;4.90;99.90
30047;DHT22;16878;52.542;13.426;2023-02-11T03:15:36;4.90;99.90
30047;DHT22;16878;52.542;13.426;2023-02-11T03:18:03;4.90;99.90
30047;DHT22;16878;52.542;13.426;2023-02-11T03:20:34;4.90;99.90
30047;DHT22;16878;52.542;13.426;2023-02-11T03:25:55;4.90;99.90
30047;DHT22;16878;52.542;13.426;2023-02-11T03:28:34;4.90;99.90
30047;DHT22;16878;52.542;13.426;2023-02-11T03:31:16;4.90;99.90
30047;DHT22;16878;52.542;13.426;2023-02-11T03:34:03;4.90;99.90
30047;DHT22;16878;52.542;13.426;2023-02-11T03:36:39;4.90;99.90
30047;DHT22;16878;52.542;13.426;2023-02-11T03:39:16;4.90;99.90
30047;DHT22;16878;52.542;13.426;2023-02-11T03:41:44;4.90;99.90
30047;DHT22;16878;52.542;13.426;2023-02-11T03:44:13;4.90;99.90
30047;DHT22;16878;52.542;13.426;2023-02-11T03:46:48;4.90;99.90
30047;DHT22;16878;52.542;13.426;2023-02-11T03:49:16;4.90;99.90
30047;DHT22;16878;52.542;13.426;2023-02-11T03:51:45;4.90;99.90
30047;DHT22;16878;52.542;13.426;2023-02-11T03:54:16;4.90;99.90
30047;DHT22;16878;52.542;13.426;2023-02-11T03:56:49;4.90;99.90
30047;DHT22;16878;52.542;13.426;2023-02-11T03:59:19;4.90;99.90
30047;DHT22;16878;52.542;13.426;2023-02-11T04:01:45;4.90;99.90
30047;DHT22;16878;52.542;13.426;2023-02-11T04:04:10;4.90;99.90
30047;DHT22;16878;52.542;13.426;2023-02-11T04:06:37;4.90;99.90
30047;DHT22;16878;52.542;13.426;2023-02-11T04:09:03;4.90;99.90
30047;DHT22;16878;52.542;13.426;2023-02-11T04:11:28;5.00;99.90
30047;DHT22;16878;52.542;13.426;2023-02-11T04:13:54;5.00;99.90
30047;DHT22;16878;52.542;13.426;2023-02-11T04:16:20;5.00;99.90
30047;DHT22;16878;52.542;13.426;2023-02-11T04:18:45;5.00;99.90
30047;DHT22;16878;52.542;13.426;2023-02-11T04:21:11;5.00;99.90
30047;DHT22;16878;52.542;13.426;2023-02-11T04:23:37;5.00;99.90
30047;DHT22;16878;52.542;13.426;2023-02-11T04:26:03;5.00;99.90
30047;DHT22;16878;52.542;13.426;2023-02-11T04:28:28;5.00;99.90
30047;DHT22;16878;52.542;13.426;2023-02-11T04:30:55;5.00;99.90
30047;DHT22;16878;52.542;13.426;2023-02-11T04:33:21;5.00;99.90
30047;DHT22;16878;52.542;13.426;2023-02-11T04:35:47;5.00;99.90
30047;DHT22;16878;52.542;13.426;2023-02-11T04:38:13;5.00;99.90
30047;DHT22;16878;52.542;13.426;2023-02-11T04:40:39;5.10;99.90
30047;DHT22;16878;52.542;13.426;2023-02-11T04:43:05;5.10;99.90
30047;DHT22;16878;52.542;13.426;2023-02-11T04:45:31;5.10;99.90
30047;DHT22;16878;52.542;13.426;2023-02-11T04:47:57;5.10;99.90
30047;DHT22;16878;52.542;13.426;2023-02-11T04:50:22;5.10;99.90
30047;DHT22;16878;52.542;13.426;2023-02-11T04:52:48;5.10;99.90
30047;DHT22;16878;52.542;13.426;2023-02-11T04:55:14;5.10;99.90
30047;DHT22;16878;52.542;13.426;2023-02-11T04:57:39;5.10;99.90
30047;DHT22;16878;52.542;13.426;2023-02-11T05:00:06;5.10;99.90
30047;DHT22;16878;52.542;13.426;2023-02-11T05:02:32;5.10;99.90
30047;DHT22;16878;52.542;13.426;2023-02-11T05:04:58;5.10;99.90
30047;DHT22;16878;52.542;13.426;2023-02-11T05:07:23;5.10;99.90
30047;DHT22;16878;52.542;13.426;2023-02-11T05:09:49;5.10;99.90
30047;DHT22;16878;52.542;13.426;2023-02-11T05:12:15;5.10;99.90
30047;DHT22;16878;52.542;13.426;2023-02-11T05:14:40;5.10;99.90
30047;DHT22;16878;52.542;13.426;2023-02-11T05:17:06;5.10;99.90
30047;DHT22;16878;52.542;13.426;2023-02-11T05:19:32;5.10;99.90
30047;DHT22;16878;52.542;13.426;2023-02-11T05:21:58;5.10;99.90
30047;DHT22;16878;52.542;13.426;2023-02-11T05:24:24;5.10;99.90
30047;DHT22;16878;52.542;13.426;2023-02-11T05:26:49;5.10;99.90
30047;DHT22;16878;52.542;13.426;2023-02-11T05:29:15;5.10;99.90
30047;DHT22;16878;52.542;13.426;2023-02-11T05:31:41;5.10;99.90
30047;DHT22;16878;52.542;13.426;2023-02-11T05:34:06;5.10;99.90
30047;DHT22;16878;52.542;13.426;2023-02-11T05:36:32;5.10;99.90
30047;DHT22;16878;52.542;13.426;2023-02-11T05:38:57;5.10;99.90
30047;DHT22;16878;52.542;13.426;2023-02-11T05:41:23;5.10;99.90
30047;DHT22;16878;52.542;13.426;2023-02-11T05:43:49;5.10;99.90
30047;DHT22;16878;52.542;13.426;2023-02-11T05:46:17;5.10;99.90
30047;DHT22;16878;52.542;13.426;2023-02-11T05:48:43;5.10;99.90
30047;DHT22;16878;52.542;13.426;2023-02-11T05:51:09;5.10;99.90
30047;DHT22;16878;52.542;13.426;2023-02-11T05:53:35;5.20;99.90
30047;DHT22;16878;52.542;13.426;2023-02-11T05:56:01;5.10;99.90
30047;DHT22;16878;52.542;13.426;2023-02-11T05:58:26;5.20;99.90
30047;DHT22;16878;52.542;13.426;2023-02-11T06:00:52;5.20;99.90
30047;DHT22;16878;52.542;13.426;2023-02-11T06:03:18;5.20;99.90
30047;DHT22;16878;52.542;13.426;2023-02-11T06:05:44;5.20;99.90
30047;DHT22;16878;52.542;13.426;2023-02-11T06:08:11;5.20;99.90
30047;DHT22;16878;52.542;13.426;2023-02-11T06:10:37;5.20;99.90
30047;DHT22;16878;52.542;13.426;2023-02-11T06:13:03;5.20;99.90
30047;DHT22;16878;52.542;13.426;2023-02-11T06:15:29;5.20;99.90
30047;DHT22;16878;52.542;13.426;2023-02-11T06:17:55;5.20;99.90
30047;DHT22;16878;52.542;13.426;2023-02-11T06:20:20;5.20;99.90
30047;DHT22;16878;52.542;13.426;2023-02-11T06:22:46;5.20;99.90
30047;DHT22;16878;52.542;13.426;2023-02-11T06:25:12;5.30;99.90
30047;DHT22;16878;52.542;13.426;2023-02-11T06:27:37;5.30;99.90
30047;DHT22;16878;52.542;13.426;2023-02-11T06:30:05;5.20;99.90
30047;DHT22;16878;52.542;13.426;2023-02-11T06:32:31;5.30;99.90
30047;DHT22;16878;52.542;13.426;2023-02-11T06:34:57;5.30;99.90
30047;DHT22;16878;52.542;13.426;2023-02-11T06:37:22;5.30;99.90
30047;DHT22;16878;52.542;13.426;2023-02-11T06:39:48;5.30;99.90
30047;DHT22;16878;52.542;13.426;2023-02-11T06:42:17;5.30;99.90
30047;DHT22;16878;52.542;13.426;2023-02-11T06:44:43;5.40;99.90
30047;DHT22;16878;52.542;13.426;2023-02-11T06:47:09;5.40;99.90
30047;DHT22;16878;52.542;13.426;2023-02-11T06:49:35;5.40;99.90
30047;DHT22;16878;52.542;13.426;2023-02-11T06:52:00;5.40;99.90
30047;DHT22;16878;52.542;13.426;2023-02-11T06:54:26;5.40;99.90
30047;DHT22;16878;52.542;13.426;2023-02-11T06:56:52;5.40;99.90
30047;DHT22;16878;52.542;13.426;2023-02-11T06:59:18;5.40;99.90
30047;DHT22;16878;52.542;13.426;2023-02-11T07:01:45;5.40;99.90
30047;DHT22;16878;52.542;13.426;2023-02-11T07:04:11;5.40;99.90
30047;DHT22;16878;52.542;13.426;2023-02-11T07:06:39;5.50;99.90
30047;DHT22;16878;52.542;13.426;2023-02-11T07:09:05;5.50;99.90
30047;DHT22;16878;52.542;13.426;2023-02-11T07:11:32;5.50;99.90
30047;DHT22;16878;52.542;13.426;2023-02-11T07:14:06;5.50;99.90
30047;DHT22;16878;52.542;13.426;2023-02-11T07:16:35;5.50;99.90
30047;DHT22;16878;52.542;13.426;2023-02-11T07:19:01;5.50;99.90
30047;DHT22;16878;52.542;13.426;2023-02-11T07:21:27;5.60;99.90
30047;DHT22;16878;52.542;13.426;2023-02-11T07:23:53;5.60;99.90
30047;DHT22;16878;52.542;13.426;2023-02-11T07:26:21;5.60;99.90
30047;DHT22;16878;52.542;13.426;2023-02-11T07:28:50;5.70;99.90
30047;DHT22;16878;52.542;13.426;2023-02-11T07:31:22;5.70;99.90
30047;DHT22;16878;52.542;13.426;2023-02-11T07:33:48;5.70;99.90
30047;DHT22;16878;52.542;13.426;2023-02-11T07:36:15;5.70;99.90
30047;DHT22;16878;52.542;13.426;2023-02-11T07:38:41;5.80;99.90
30047;DHT22;16878;52.542;13.426;2023-02-11T07:41:10;5.80;99.90
30047;DHT22;16878;52.542;13.426;2023-02-11T07:43:37;5.80;99.90
30047;DHT22;16878;52.542;13.426;2023-02-11T07:46:08;5.90;99.90
30047;DHT22;16878;52.542;13.426;2023-02-11T07:48:34;5.90;99.90
30047;DHT22;16878;52.542;13.426;2023-02-11T07:51:15;5.90;99.90
30047;DHT22;16878;52.542;13.426;2023-02-11T07:53:42;6.00;99.90
30047;DHT22;16878;52.542;13.426;2023-02-11T07:56:09;6.00;99.90
30047;DHT22;16878;52.542;13.426;2023-02-11T07:58:35;6.00;99.90
30047;DHT22;16878;52.542;13.426;2023-02-11T08:01:05;6.00;99.90
30047;DHT22;16878;52.542;13.426;2023-02-11T08:03:31;6.00;99.90
30047;DHT22;16878;52.542;13.426;2023-02-11T08:05:57;6.00;99.90
30047;DHT22;16878;52.542;13.426;2023-02-11T08:08:25;6.00;99.90
30047;DHT22;16878;52.542;13.426;2023-02-11T08:10:51;6.00;99.90
30047;DHT22;16878;52.542;13.426;2023-02-11T08:13:17;6.00;99.90
30047;DHT22;16878;52.542;13.426;2023-02-11T08:15:43;6.00;99.90
30047;DHT22;16878;52.542;13.426;2023-02-11T08:18:09;6.10;99.90
30047;DHT22;16878;52.542;13.426;2023-02-11T08:20:34;6.10;99.90
30047;DHT22;16878;52.542;13.426;2023-02-11T08:23:00;6.10;99.90
30047;DHT22;16878;52.542;13.426;2023-02-11T08:25:26;6.20;99.90
30047;DHT22;16878;52.542;13.426;2023-02-11T08:27:52;6.20;99.90
30047;DHT22;16878;52.542;13.426;2023-02-11T08:30:18;6.20;99.90
30047;DHT22;16878;52.542;13.426;2023-02-11T08:32:43;6.20;99.90
30047;DHT22;16878;52.542;13.426;2023-02-11T08:35:09;6.20;99.90
30047;DHT22;16878;52.542;13.426;2023-02-11T08:37:37;6.20;99.90
30047;DHT22;16878;52.542;13.426;2023-02-11T08:40:03;6.20;99.90
30047;DHT22;16878;52.542;13.426;2023-02-11T08:42:28;6.20;99.90
30047;DHT22;16878;52.542;13.426;2023-02-11T08:44:54;6.20;99.90
30047;DHT22;16878;52.542;13.426;2023-02-11T08:47:20;6.20;99.90
30047;DHT22;16878;52.542;13.426;2023-02-11T08:49:45;6.20;99.90
30047;DHT22;16878;52.542;13.426;2023-02-11T08:52:11;6.20;99.90
30047;DHT22;16878;52.542;13.426;2023-02-11T08:54:37;6.20;99.90
30047;DHT22;16878;52.542;13.426;2023-02-11T08:57:03;6.20;99.90
30047;DHT22;16878;52.542;13.426;2023-02-11T08:59:28;6.20;99.90
30047;DHT22;16878;52.542;13.426;2023-02-11T09:01:54;6.30;99.90
30047;DHT22;16878;52.542;13.426;2023-02-11T09:04:20;6.20;99.90
30047;DHT22;16878;52.542;13.426;2023-02-11T09:06:46;6.30;99.90
30047;DHT22;16878;52.542;13.426;2023-02-11T09:09:14;6.30;99.90
30047;DHT22;16878;52.542;13.426;2023-02-11T09:11:41;6.30;99.90
30047;DHT22;16878;52.542;13.426;2023-02-11T09:14:07;6.30;99.90
30047;DHT22;16878;52.542;13.426;2023-02-11T09:16:35;6.30;99.90
30047;DHT22;16878;52.542;13.426;2023-02-11T09:19:02;6.30;99.90
30047;DHT22;16878;52.542;13.426;2023-02-11T09:21:29;6.30;99.90
30047;DHT22;16878;52.542;13.426;2023-02-11T09:23:55;6.30;99.90
30047;DHT22;16878;52.542;13.426;2023-02-11T09:26:27;6.30;99.90
30047;DHT22;16878;52.542;13.426;2023-02-11T09:28:53;6.40;99.90
30047;DHT22;16878;52.542;13.426;2023-02-11T09:31:21;6.40;99.90
30047;DHT22;16878;52.542;13.426;2023-02-11T09:33:49;6.40;99.90
30047;DHT22;16878;52.542;13.426;2023-02-11T09:36:21;6.40;99.90
30047;DHT22;16878;52.542;13.426;2023-02-11T09:38:47;6.40;99.90
30047;DHT22;16878;52.542;13.426;2023-02-11T09:44:32;6.40;99.90
30047;DHT22;16878;52.542;13.426;2023-02-11T09:49:56;6.50;99.90
30047;DHT22;16878;52.542;13.426;2023-02-11T09:53:38;6.50;99.90
30047;DHT22;16878;52.542;13.426;2023-02-11T09:55:35;6.50;99.90
30047;DHT22;16878;52.542;13.426;2023-02-11T09:58:24;6.50;99.90
30047;DHT22;16878;52.542;13.426;2023-02-11T10:23:00;6.60;99.90
30047;DHT22;16878;52.542;13.426;2023-02-11T10:25:29;6.60;99.90
30047;DHT22;16878;52.542;13.426;2023-02-11T10:27:58;6.60;99.90
30047;DHT22;16878;52.542;13.426;2023-02-11T10:30:51;6.60;99.90
30047;DHT22;16878;52.542;13.426;2023-02-11T10:36:13;6.60;99.90
30047;DHT22;16878;52.542;13.426;2023-02-11T10:38:40;6.70;99.90
30047;DHT22;16878;52.542;13.426;2023-02-11T10:41:12;6.60;99.90
30047;DHT22;16878;52.542;13.426;2023-02-11T10:43:41;6.60;99.90
30047;DHT22;16878;52.542;13.426;2023-02-11T10:46:19;6.60;99.90
30047;DHT22;16878;52.542;13.426;2023-02-11T10:48:47;6.70;99.90
30047;DHT22;16878;52.542;13.426;2023-02-11T10:51:21;6.70;99.90
30047;DHT22;16878;52.542;13.426;2023-02-11T10:53:49;6.70;99.90
30047;DHT22;16878;52.542;13.426;2023-02-11T10:56:24;6.70;99.90
30047;DHT22;16878;52.542;13.426;2023-02-11T11:01:44;6.70;99.90
30047;DHT22;16878;52.542;13.426;2023-02-11T11:04:34;6.70;99.90
30047;DHT22;16878;52.542;13.426;2023-02-11T11:07:13;6.80;99.90
30047;DHT22;16878;52.542;13.426;2023-02-11T11:09:47;6.70;99.90
30047;DHT22;16878;52.542;13.426;2023-02-11T11:12:47;6.80;99.90
30047;DHT22;16878;52.542;13.426;2023-02-11T11:15:22;6.70;99.90
30047;DHT22;16878;52.542;13.426;2023-02-11T11:20:33;6.80;99.90
30047;DHT22;16878;52.542;13.426;2023-02-11T11:23:18;6.80;99.90
30047;DHT22;16878;52.542;13.426;2023-02-11T11:28:30;6.80;99.90
30047;DHT22;16878;52.542;13.426;2023-02-11T11:30:56;6.80;99.90
30047;DHT22;16878;52.542;13.426;2023-02-11T11:33:26;6.80;99.90
30047;DHT22;16878;52.542;13.426;2023-02-11T11:36:05;6.80;99.90
30047;DHT22;16878;52.542;13.426;2023-02-11T11:38:32;6.80;99.90
30047;DHT22;16878;52.542;13.426;2023-02-11T11:44:38;6.90;99.90
30047;DHT22;16878;52.542;13.426;2023-02-11T11:46:41;6.90;99.90
30047;DHT22;16878;52.542;13.426;2023-02-11T11:51:55;6.90;99.90
30047;DHT22;16878;52.542;13.426;2023-02-11T11:54:24;6.90;99.90
30047;DHT22;16878;52.542;13.426;2023-02-11T11:57:00;7.00;99.90
30047;DHT22;16878;52.542;13.426;2023-02-11T11:59:27;7.00;99.90
30047;DHT22;16878;52.542;13.426;2023-02-11T12:05:00;7.00;99.90
30047;DHT22;16878;52.542;13.426;2023-02-11T12:23:53;7.20;99.90
30047;DHT22;16878;52.542;13.426;2023-02-11T12:26:43;7.20;99.90
30047;DHT22;16878;52.542;13.426;2023-02-11T12:32:41;7.30;99.90
30047;DHT22;16878;52.542;13.426;2023-02-11T12:35:18;7.30;99.90
30047;DHT22;16878;52.542;13.426;2023-02-11T12:40:26;7.30;99.90
30047;DHT22;16878;52.542;13.426;2023-02-11T12:43:28;7.30;99.90
30047;DHT22;16878;52.542;13.426;2023-02-11T12:56:54;7.40;99.90
30047;DHT22;16878;52.542;13.426;2023-02-11T12:59:33;7.40;99.90
30047;DHT22;16878;52.542;13.426;2023-02-11T13:02:20;7.50;99.90
30047;DHT22;16878;52.542;13.426;2023-02-11T13:04:53;7.40;99.90
30047;DHT22;16878;52.542;13.426;2023-02-11T13:07:40;7.40;99.90
30047;DHT22;16878;52.542;13.426;2023-02-11T13:10:26;7.40;99.90
30047;DHT22;16878;52.542;13.426;2023-02-11T13:12:55;7.50;99.90
30047;DHT22;16878;52.542;13.426;2023-02-11T13:15:42;7.50;99.90
30047;DHT22;16878;52.542;13.426;2023-02-11T13:26:30;7.50;99.90
30047;DHT22;16878;52.542;13.426;2023-02-11T13:29:30;7.50;99.90
30047;DHT22;16878;52.542;13.426;2023-02-11T13:32:12;7.50;99.90
30047;DHT22;16878;52.542;13.426;2023-02-11T13:37:35;7.40;99.90
30047;DHT22;16878;52.542;13.426;2023-02-11T13:40:21;7.50;99.90
30047;DHT22;16878;52.542;13.426;2023-02-11T13:42:55;7.40;99.90
30047;DHT22;16878;52.542;13.426;2023-02-11T13:48:21;7.40;99.90
30047;DHT22;16878;52.542;13.426;2023-02-11T13:50:52;7.40;99.90
30047;DHT22;16878;52.542;13.426;2023-02-11T13:53:18;7.40;99.90
30047;DHT22;16878;52.542;13.426;2023-02-11T13:55:47;7.40;99.90
30047;DHT22;16878;52.542;13.426;2023-02-11T14:03:26;7.40;99.90
30047;DHT22;16878;52.542;13.426;2023-02-11T14:06:14;7.50;99.90
30047;DHT22;16878;52.542;13.426;2023-02-11T14:11:54;7.50;99.90
30047;DHT22;16878;52.542;13.426;2023-02-11T14:15:14;7.50;99.90
30047;DHT22;16878;52.542;13.426;2023-02-11T14:17:41;7.50;99.90
30047;DHT22;16878;52.542;13.426;2023-02-11T14:20:37;7.50;99.90
30047;DHT22;16878;52.542;13.426;2023-02-11T14:23:06;7.50;99.90
30047;DHT22;16878;52.542;13.426;2023-02-11T14:25:32;7.50;99.90
30047;DHT22;16878;52.542;13.426;2023-02-11T14:28:14;7.50;99.90
30047;DHT22;16878;52.542;13.426;2023-02-11T14:33:45;7.50;99.90
30047;DHT22;16878;52.542;13.426;2023-02-11T14:36:28;7.50;99.90
30047;DHT22;16878;52.542;13.426;2023-02-11T14:39:11;7.50;99.90
30047;DHT22;16878;52.542;13.426;2023-02-11T14:41:44;7.50;99.90
30047;DHT22;16878;52.542;13.426;2023-02-11T14:44:20;7.50;99.90
30047;DHT22;16878;52.542;13.426;2023-02-11T14:46:48;7.50;99.90
30047;DHT22;16878;52.542;13.426;2023-02-11T14:49:35;7.50;99.90
30047;DHT22;16878;52.542;13.426;2023-02-11T14:52:30;7.50;99.90
30047;DHT22;16878;52.542;13.426;2023-02-11T14:58:04;7.50;99.90
30047;DHT22;16878;52.542;13.426;2023-02-11T15:00:29;7.50;99.90
30047;DHT22;16878;52.542;13.426;2023-02-11T15:02:55;7.50;99.90
30047;DHT22;16878;52.542;13.426;2023-02-11T15:05:23;7.50;99.90
30047;DHT22;16878;52.542;13.426;2023-02-11T15:07:58;7.50;99.90
30047;DHT22;16878;52.542;13.426;2023-02-11T15:10:36;7.50;99.90
30047;DHT22;16878;52.542;13.426;2023-02-11T15:13:05;7.50;99.90
30047;DHT22;16878;52.542;13.426;2023-02-11T15:15:32;7.50;99.90
30047;DHT22;16878;52.542;13.426;2023-02-11T15:18:02;7.50;99.90
30047;DHT22;16878;52.542;13.426;2023-02-11T15:20:30;7.50;99.90
30047;DHT22;16878;52.542;13.426;2023-02-11T15:23:04;7.50;99.90
30047;DHT22;16878;52.542;13.426;2023-02-11T15:25:31;7.50;99.90
30047;DHT22;16878;52.542;13.426;2023-02-11T15:27:57;7.50;99.90
30047;DHT22;16878;52.542;13.426;2023-02-11T15:30:26;7.50;99.90
30047;DHT22;16878;52.542;13.426;2023-02-11T15:32:54;7.50;99.90
30047;DHT22;16878;52.542;13.426;2023-02-11T15:35:28;7.50;99.90
30047;DHT22;16878;52.542;13.426;2023-02-11T15:37:56;7.50;99.90
30047;DHT22;16878;52.542;13.426;2023-02-11T15:40:28;7.50;99.90
30047;DHT22;16878;52.542;13.426;2023-02-11T15:43:01;7.50;99.90
30047;DHT22;16878;52.542;13.426;2023-02-11T15:48:00;7.50;99.90
30047;DHT22;16878;52.542;13.426;2023-02-11T15:50:31;7.50;99.90
30047;DHT22;16878;52.542;13.426;2023-02-11T15:53:00;7.50;99.90
30047;DHT22;16878;52.542;13.426;2023-02-11T15:55:28;7.50;99.90
30047;DHT22;16878;52.542;13.426;2023-02-11T15:57:59;7.50;99.90
30047;DHT22;16878;52.542;13.426;2023-02-11T16:00:33;7.50;99.90
30047;DHT22;16878;52.542;13.426;2023-02-11T16:03:00;7.50;99.90
30047;DHT22;16878;52.542;13.426;2023-02-11T16:05:30;7.50;99.90
30047;DHT22;16878;52.542;13.426;2023-02-11T16:07:57;7.50;99.90
30047;DHT22;16878;52.542;13.426;2023-02-11T16:10:32;7.50;99.90
30047;DHT22;16878;52.542;13.426;2023-02-11T16:18:01;7.50;99.90
30047;DHT22;16878;52.542;13.426;2023-02-11T16:20:27;7.50;99.90
30047;DHT22;16878;52.542;13.426;2023-02-11T16:22:53;7.50;99.90
30047;DHT22;16878;52.542;13.426;2023-02-11T16:25:20;7.50;99.90
30047;DHT22;16878;52.542;13.426;2023-02-11T16:27:55;7.50;99.90
30047;DHT22;16878;52.542;13.426;2023-02-11T16:30:35;7.40;99.90
30047;DHT22;16878;52.542;13.426;2023-02-11T16:33:04;7.40;99.90
30047;DHT22;16878;52.542;13.426;2023-02-11T16:35:31;7.50;99.90
30047;DHT22;16878;52.542;13.426;2023-02-11T16:37:56;7.50;99.90
30047;DHT22;16878;52.542;13.426;2023-02-11T16:40:22;7.50;99.90
30047;DHT22;16878;52.542;13.426;2023-02-11T16:42:48;7.50;99.90
30047;DHT22;16878;52.542;13.426;2023-02-11T16:45:15;7.50;99.90
30047;DHT22;16878;52.542;13.426;2023-02-11T16:47:42;7.50;99.90
30047;DHT22;16878;52.542;13.426;2023-02-11T16:50:10;7.50;99.90
30047;DHT22;16878;52.542;13.426;2023-02-11T16:52:42;7.50;99.90
30047;DHT22;16878;52.542;13.426;2023-02-11T16:55:14;7.50;99.90
30047;DHT22;16878;52.542;13.426;2023-02-11T16:57:39;7.50;99.90
30047;DHT22;16878;52.542;13.426;2023-02-11T17:00:06;7.50;99.90
30047;DHT22;16878;52.542;13.426;2023-02-11T17:02:33;7.50;99.90
30047;DHT22;16878;52.542;13.426;2023-02-11T17:05:02;7.50;99.90
30047;DHT22;16878;52.542;13.426;2023-02-11T17:07:28;7.50;99.90
30047;DHT22;16878;52.542;13.426;2023-02-11T17:09:55;7.50;99.90
30047;DHT22;16878;52.542;13.426;2023-02-11T17:12:21;7.60;99.90
30047;DHT22;16878;52.542;13.426;2023-02-11T17:14:50;7.60;99.90
30047;DHT22;16878;52.542;13.426;2023-02-11T17:17:16;7.50;99.90
30047;DHT22;16878;52.542;13.426;2023-02-11T17:19:42;7.50;99.90
30047;DHT22;16878;52.542;13.426;2023-02-11T17:22:11;7.60;99.90
30047;DHT22;16878;52.542;13.426;2023-02-11T17:24:37;7.50;99.90
30047;DHT22;16878;52.542;13.426;2023-02-11T17:27:02;7.60;99.90
30047;DHT22;16878;52.542;13.426;2023-02-11T17:29:28;7.60;99.90
30047;DHT22;16878;52.542;13.426;2023-02-11T17:31:54;7.60;99.90
30047;DHT22;16878;52.542;13.426;2023-02-11T17:34:21;7.60;99.90
30047;DHT22;16878;52.542;13.426;2023-02-11T17:36:47;7.60;99.90
30047;DHT22;16878;52.542;13.426;2023-02-11T17:39:13;7.60;99.90
30047;DHT22;16878;52.542;13.426;2023-02-11T17:41:41;7.60;99.90
30047;DHT22;16878;52.542;13.426;2023-02-11T17:44:09;7.60;99.90
30047;DHT22;16878;52.542;13.426;2023-02-11T17:46:36;7.60;99.90
30047;DHT22;16878;52.542;13.426;2023-02-11T17:49:02;7.60;99.90
30047;DHT22;16878;52.542;13.426;2023-02-11T17:51:31;7.60;99.90
30047;DHT22;16878;52.542;13.426;2023-02-11T17:54:05;7.60;99.90
30047;DHT22;16878;52.542;13.426;2023-02-11T17:56:32;7.60;99.90
30047;DHT22;16878;52.542;13.426;2023-02-11T17:58:59;7.60;99.90
30047;DHT22;16878;52.542;13.426;2023-02-11T18:01:30;7.60;99.90
30047;DHT22;16878;52.542;13.426;2023-02-11T18:03:56;7.60;99.90
30047;DHT22;16878;52.542;13.426;2023-02-11T18:06:22;7.60;99.90
30047;DHT22;16878;52.542;13.426;2023-02-11T18:08:48;7.60;99.90
30047;DHT22;16878;52.542;13.426;2023-02-11T18:11:14;7.60;99.90
30047;DHT22;16878;52.542;13.426;2023-02-11T18:13:41;7.60;99.90
30047;DHT22;16878;52.542;13.426;2023-02-11T18:16:07;7.60;99.90